WADD Airport Information

Runway Information
Runway 09 Length 9790 ft width 148 ft
Elevation 11 ft Threshold ft Heading 88
Runway 27 Length 9790 ft Width 148 ft
Elevation 12 ft Threshold ft Heading 268
Airport Frequencies
Type APP Name DIRECTOR Frequency 119.7 MHZ
Type ATIS Name ATIS Frequency 126.2 MHZ
Type GND Name NGURAH GND Frequency 118.8 MHZ
Type INFO Name INFO Frequency 8.88 MHZ
Type TWR Name NGURAH TWR Frequency 118.1 MHZ
Type TMA Name RADAR Frequency 119.3 MHZ
Airport Navaids
Type VOR-DME Name Bali Frequency 116200 KHZ
Type NDB Name Bali Frequency 230 KHZ
Airport Weather Information & NOTAM
ADDS - METARS form results

(2143 UTC 05 October 2022)
Data provider http://aviationweather.gov/metar/data/
 
METAR text: WADD 052130Z 30003KT 9999 SCT0170 25/24 Q1010 NOSIG
Conditions at: WADD (BALI INTL , ID) observed 2130 UTC 05 October 2022
Temperature: 25.0°C (77°F)
Dewpoint: 24.0°C (75°F) [RH = 94%]
Pressure (altimeter): 29.82 inches Hg (1010.0 mb)
Winds: from the WNW (300 degrees) at 3 MPH (3 knots; 1.5 m/s)
Visibility: 6 or more miles (10+ km)
Ceiling: unknown
Clouds: missing
Weather: no significant weather observed at this time

METAR text: WADD 052100Z 30001KT 9999 SCT017 26/24 Q1009 NOSIG
Conditions at: WADD (BALI INTL , ID) observed 2100 UTC 05 October 2022
Temperature: 26.0°C (79°F)
Dewpoint: 24.0°C (75°F) [RH = 89%]
Pressure (altimeter): 29.79 inches Hg (1009.0 mb)
Winds: from the WNW (300 degrees) at 1 MPH (1 knots; 0.5 m/s)
Visibility: 6 or more miles (10+ km)
Ceiling: at least 12,000 feet AGL
Clouds: scattered clouds at 1700 feet AGL
Weather: no significant weather observed at this time

Forecast for: WADD (BALI INTL , ID)
Text: TAF WADD 051700Z 0518/0618 VRB05KT 9999 SCT016
Forecast period: 1800 UTC 05 October 2022 to 1800 UTC 06 October 2022
Forecast type: FROM: standard forecast or significant change
Winds: variable direction winds at 6 MPH (5 knots; 2.6 m/s)
Visibility: 6 or more miles (10+ km)
Ceiling: at least 12,000 feet AGL
Clouds: scattered clouds at 1600 feet AGL
Weather: no significant weather forecast for this period
Text: TEMPO 0523/0603 5000 TSRA FEW014CB BKN015
Forecast period: 2300 UTC 05 October 2022 to 0300 UTC 06 October 2022
Forecast type: TEMPORARY: The following changes expected for less than half the time period
Visibility: 3 miles (5 km)
Ceiling: 1500 feet AGL
Clouds: few clouds at 1400 feet AGL
broken clouds at 1500 feet AGL
Weather: TSRA  (rain associated with thunderstorm(s))
Text: TEMPO 0604/0608 5000 RA BKN015
Forecast period: 0400 to 0800 UTC 06 October 2022
Forecast type: TEMPORARY: The following changes expected for less than half the time period
Visibility: 3 miles (5 km)
Ceiling: 1500 feet AGL
Clouds: broken clouds at 1500 feet AGL
Weather: RA  (moderate rain)